Time;durP1;ratioP1;P1;durP2;ratioP2;P2;SDS_P1;SDS_P2;PMS_P1;PMS_P2;Temp;Humidity;BMP_temperature;BMP_pressure;BME280_temperature;BME280_humidity;BME280_pressure;Samples;Min_cycle;Max_cycle;Signal;HPM_P1;HPM_P2
2021/09/17 00:00:48;;;;;;;9.55;5.57;;;;;;;;;;5012969;28;20461;-39
2021/09/17 00:03:13;;;;;;;9.32;4.50;;;;;;;;;;5012812;28;20021;-38
2021/09/17 00:05:38;;;;;;;6.82;4.60;;;;;;;;;;5012873;28;20030;-38
2021/09/17 00:08:04;;;;;;;14.85;4.90;;;;;;;;;;5044570;28;20045;-39
2021/09/17 00:10:29;;;;;;;9.93;6.00;;;;;;;;;;5013033;28;20062;-38
2021/09/17 00:12:55;;;;;;;7.43;4.63;;;;;;;;;;5012800;28;20461;-39
2021/09/17 00:15:20;;;;;;;6.80;4.65;;;;;;;;;;5012775;28;20051;-38
2021/09/17 00:17:45;;;;;;;11.23;4.75;;;;;;;;;;5012770;28;20070;-38
2021/09/17 00:20:12;;;;;;;9.93;4.43;;;;;;;;;;5012899;28;20034;-39
2021/09/17 00:22:37;;;;;;;7.72;4.45;;;;;;;;;;5012781;28;20048;-38
2021/09/17 00:25:04;;;;;;;10.43;5.22;;;;;;;;;;5012858;28;20029;-38
2021/09/17 00:27:29;;;;;;;9.90;5.25;;;;;;;;;;5012870;28;20100;-39
2021/09/17 00:29:55;;;;;;;9.27;4.70;;;;;;;;;;5012844;28;20468;-38
2021/09/17 00:32:20;;;;;;;14.75;5.40;;;;;;;;;;5012567;28;20105;-39
2021/09/17 00:34:46;;;;;;;8.02;4.90;;;;;;;;;;5012876;28;20630;-39
2021/09/17 00:37:11;;;;;;;17.42;5.30;;;;;;;;;;5012286;28;20014;-39
2021/09/17 00:39:36;;;;;;;12.10;5.75;;;;;;;;;;5012877;28;20088;-38
2021/09/17 00:42:02;;;;;;;10.80;5.88;;;;;;;;;;5012471;28;20048;-39
2021/09/17 00:44:28;;;;;;;8.30;5.05;;;;;;;;;;5012508;28;20045;-39
2021/09/17 00:46:54;;;;;;;6.82;4.47;;;;;;;;;;5012548;28;20477;-39
2021/09/17 00:49:19;;;;;;;10.45;5.35;;;;;;;;;;5012220;28;20080;-39
2021/09/17 00:51:45;;;;;;;8.23;4.93;;;;;;;;;;5012631;28;20029;-39
2021/09/17 00:54:11;;;;;;;15.27;5.35;;;;;;;;;;5012574;28;20112;-38
2021/09/17 00:56:36;;;;;;;18.00;6.45;;;;;;;;;;5012665;28;20496;-39
2021/09/17 00:59:02;;;;;;;21.15;7.65;;;;;;;;;;5012629;28;20053;-39
2021/09/17 01:01:27;;;;;;;16.58;6.82;;;;;;;;;;5012208;28;20014;-42
2021/09/17 01:03:52;;;;;;;17.77;6.20;;;;;;;;;;5012326;28;20061;-39
2021/09/17 01:06:18;;;;;;;16.48;5.97;;;;;;;;;;5012221;28;20101;-39
2021/09/17 01:08:43;;;;;;;9.98;6.07;;;;;;;;;;5012173;28;20069;-38
2021/09/17 01:11:12;;;;;;;16.30;6.07;;;;;;;;;;5012188;28;20014;-39
2021/09/17 01:13:38;;;;;;;14.15;6.45;;;;;;;;;;5012167;28;20049;-38
2021/09/17 01:16:03;;;;;;;10.80;5.72;;;;;;;;;;5027674;28;20421;-39
2021/09/17 01:18:29;;;;;;;12.25;6.00;;;;;;;;;;5012217;28;20452;-39
2021/09/17 01:20:56;;;;;;;8.82;5.25;;;;;;;;;;5012106;28;20049;-39
2021/09/17 01:23:21;;;;;;;11.18;5.88;;;;;;;;;;5012089;28;20054;-38
2021/09/17 01:25:46;;;;;;;10.45;5.70;;;;;;;;;;5012358;28;20096;-39
2021/09/17 01:28:12;;;;;;;10.00;5.80;;;;;;;;;;5012174;28;20088;-38
2021/09/17 01:30:37;;;;;;;10.60;5.20;;;;;;;;;;5012465;28;20423;-38
2021/09/17 01:33:02;;;;;;;14.30;5.50;;;;;;;;;;5011934;28;20049;-38
2021/09/17 01:35:28;;;;;;;15.60;5.40;;;;;;;;;;5013997;28;20021;-38
2021/09/17 01:37:53;;;;;;;10.52;4.28;;;;;;;;;;5015625;28;20034;-38
2021/09/17 01:40:19;;;;;;;10.45;5.30;;;;;;;;;;5015415;28;20045;-38
2021/09/17 01:42:45;;;;;;;14.88;5.68;;;;;;;;;;5015508;28;20050;-38
2021/09/17 01:45:10;;;;;;;10.38;5.32;;;;;;;;;;5015251;28;20053;-38
2021/09/17 01:47:36;;;;;;;7.82;4.95;;;;;;;;;;5015299;28;20028;-38
2021/09/17 01:50:01;;;;;;;11.15;5.35;;;;;;;;;;5015442;28;20491;-38
2021/09/17 01:52:27;;;;;;;13.77;5.03;;;;;;;;;;5015186;28;20030;-38
2021/09/17 01:54:52;;;;;;;7.35;4.55;;;;;;;;;;5015257;28;20029;-38
2021/09/17 01:57:18;;;;;;;5.93;4.05;;;;;;;;;;5015094;28;20025;-38
2021/09/17 01:59:43;;;;;;;7.63;3.92;;;;;;;;;;5015511;28;20029;-38
2021/09/17 02:02:08;;;;;;;5.15;4.00;;;;;;;;;;5015012;28;20496;-38
2021/09/17 02:04:34;;;;;;;10.15;4.60;;;;;;;;;;5015331;28;20358;-38
2021/09/17 02:06:59;;;;;;;7.47;3.97;;;;;;;;;;5015081;28;20053;-38
2021/09/17 02:09:25;;;;;;;7.22;4.45;;;;;;;;;;5014769;28;20026;-38
2021/09/17 02:11:50;;;;;;;6.53;3.78;;;;;;;;;;5014996;28;20360;-38
2021/09/17 02:14:15;;;;;;;9.50;4.05;;;;;;;;;;5014872;28;20628;-38
2021/09/17 02:16:41;;;;;;;10.15;4.90;;;;;;;;;;5014729;28;20037;-39
2021/09/17 02:19:07;;;;;;;14.43;5.65;;;;;;;;;;5015020;28;20117;-38
2021/09/17 02:21:33;;;;;;;11.25;5.20;;;;;;;;;;5014728;28;20073;-38
2021/09/17 02:23:58;;;;;;;11.68;5.57;;;;;;;;;;5014647;28;20022;-38
2021/09/17 02:26:24;;;;;;;7.95;5.05;;;;;;;;;;5014940;28;20084;-38
2021/09/17 02:28:49;;;;;;;6.55;3.25;;;;;;;;;;5014611;28;20040;-38
2021/09/17 02:31:15;;;;;;;3.30;2.35;;;;;;;;;;5014716;28;20065;-38
2021/09/17 02:33:40;;;;;;;2.75;2.25;;;;;;;;;;5014539;28;20017;-38
2021/09/17 02:36:06;;;;;;;4.97;2.53;;;;;;;;;;5014335;28;20109;-38
2021/09/17 02:38:32;;;;;;;3.75;2.25;;;;;;;;;;5014486;28;20065;-38
2021/09/17 02:40:57;;;;;;;5.38;2.72;;;;;;;;;;5014692;28;20129;-38
2021/09/17 02:43:23;;;;;;;7.30;3.00;;;;;;;;;;5014221;28;20517;-38
2021/09/17 02:45:48;;;;;;;4.10;2.10;;;;;;;;;;5013494;28;20054;-38
2021/09/17 02:48:14;;;;;;;4.22;1.52;;;;;;;;;;5013682;28;20034;-38
2021/09/17 02:50:40;;;;;;;3.05;1.00;;;;;;;;;;5014255;28;20037;-38
2021/09/17 02:53:06;;;;;;;3.42;1.15;;;;;;;;;;5014237;28;20029;-38
2021/09/17 02:55:32;;;;;;;2.15;1.15;;;;;;;;;;5014078;28;20030;-38
2021/09/17 02:57:58;;;;;;;2.63;1.10;;;;;;;;;;5014410;28;20017;-38
2021/09/17 03:00:23;;;;;;;1.45;1.13;;;;;;;;;;5013923;28;20129;-38
2021/09/17 03:02:49;;;;;;;1.65;1.10;;;;;;;;;;5013981;28;20014;-38
2021/09/17 03:05:14;;;;;;;1.45;1.00;;;;;;;;;;5014145;28;20045;-39
2021/09/17 03:07:40;;;;;;;2.85;1.10;;;;;;;;;;5014078;28;20017;-38
2021/09/17 03:10:06;;;;;;;3.58;1.13;;;;;;;;;;5013762;28;20099;-38
2021/09/17 03:12:31;;;;;;;2.25;1.42;;;;;;;;;;5013746;28;20018;-38
2021/09/17 03:14:56;;;;;;;3.00;1.55;;;;;;;;;;5013437;28;20038;-38
2021/09/17 03:17:22;;;;;;;2.50;1.02;;;;;;;;;;5013736;28;20018;-38
2021/09/17 03:19:47;;;;;;;2.35;0.90;;;;;;;;;;5013710;28;20029;-38
2021/09/17 03:22:13;;;;;;;1.17;0.50;;;;;;;;;;5013805;28;20101;-38
2021/09/17 03:24:38;;;;;;;2.00;0.88;;;;;;;;;;5013957;28;20477;-38
2021/09/17 03:27:04;;;;;;;0.52;0.47;;;;;;;;;;5013614;28;20097;-38
2021/09/17 03:29:29;;;;;;;0.70;0.63;;;;;;;;;;5013465;28;20045;-38
2021/09/17 03:31:54;;;;;;;1.15;0.50;;;;;;;;;;5013800;28;20022;-38
2021/09/17 03:34:20;;;;;;;0.90;0.60;;;;;;;;;;5013357;28;20026;-38
2021/09/17 03:36:45;;;;;;;0.85;0.43;;;;;;;;;;5013547;28;20093;-38
2021/09/17 03:39:12;;;;;;;0.88;0.88;;;;;;;;;;5013286;28;20484;-38
2021/09/17 03:41:38;;;;;;;0.20;0.17;;;;;;;;;;5013299;28;20489;-38
2021/09/17 03:44:04;;;;;;;0.30;0.30;;;;;;;;;;5013345;28;20572;-37
2021/09/17 03:46:29;;;;;;;1.70;0.63;;;;;;;;;;5013235;28;20101;-38
2021/09/17 03:48:55;;;;;;;1.33;0.82;;;;;;;;;;5013111;28;20485;-38
2021/09/17 03:51:20;;;;;;;2.47;0.70;;;;;;;;;;5013339;28;20018;-38
2021/09/17 03:53:45;;;;;;;6.40;1.02;;;;;;;;;;5013444;28;20392;-38
2021/09/17 03:56:11;;;;;;;1.58;0.65;;;;;;;;;;5013183;28;20018;-38
2021/09/17 03:58:36;;;;;;;1.02;0.47;;;;;;;;;;5012748;28;20084;-38
2021/09/17 04:01:02;;;;;;;1.20;0.77;;;;;;;;;;5011790;28;20021;-38
2021/09/17 04:03:27;;;;;;;1.20;0.55;;;;;;;;;;5013054;28;20057;-38
2021/09/17 04:05:52;;;;;;;4.22;0.60;;;;;;;;;;5012956;28;20100;-38
2021/09/17 04:08:18;;;;;;;0.70;0.70;;;;;;;;;;5012783;28;20077;-38
2021/09/17 04:10:43;;;;;;;1.13;0.50;;;;;;;;;;5012815;28;20029;-38
2021/09/17 04:13:09;;;;;;;1.75;0.93;;;;;;;;;;5012678;28;20037;-38
2021/09/17 04:15:34;;;;;;;1.00;0.65;;;;;;;;;;5013150;28;20025;-38
2021/09/17 04:17:59;;;;;;;1.52;0.57;;;;;;;;;;5012769;28;20025;-38
2021/09/17 04:20:25;;;;;;;3.10;0.52;;;;;;;;;;5012706;28;20018;-38
2021/09/17 04:22:50;;;;;;;0.40;0.40;;;;;;;;;;5012698;28;20163;-38
2021/09/17 04:25:16;;;;;;;0.60;0.22;;;;;;;;;;5012838;28;20101;-38
2021/09/17 04:27:44;;;;;;;1.08;0.50;;;;;;;;;;5012671;28;20511;-38
2021/09/17 04:30:10;;;;;;;2.35;0.93;;;;;;;;;;5012610;28;20028;-38
2021/09/17 04:32:36;;;;;;;0.47;0.40;;;;;;;;;;5012580;28;20022;-38
2021/09/17 04:35:01;;;;;;;1.00;0.85;;;;;;;;;;5012597;28;20473;-38
2021/09/17 04:37:27;;;;;;;0.70;0.57;;;;;;;;;;5012804;28;20146;-37
2021/09/17 04:39:52;;;;;;;0.88;0.63;;;;;;;;;;5012574;28;20457;-39
2021/09/17 04:42:18;;;;;;;1.65;0.57;;;;;;;;;;5012378;28;20065;-38
2021/09/17 04:44:43;;;;;;;0.98;0.80;;;;;;;;;;5011069;28;20042;-38
2021/09/17 04:47:09;;;;;;;2.33;1.00;;;;;;;;;;5027483;28;20038;-38
2021/09/17 04:49:34;;;;;;;2.65;1.20;;;;;;;;;;5012698;28;20033;-38
2021/09/17 04:51:59;;;;;;;3.20;0.57;;;;;;;;;;5012708;28;20053;-38
2021/09/17 04:54:25;;;;;;;4.07;1.50;;;;;;;;;;5012512;28;20018;-38
2021/09/17 04:56:50;;;;;;;1.58;0.60;;;;;;;;;;5011135;28;20030;-38
2021/09/17 04:59:16;;;;;;;0.70;0.70;;;;;;;;;;5027439;28;20053;-38
2021/09/17 05:01:41;;;;;;;0.93;0.63;;;;;;;;;;5012327;28;20382;-37
2021/09/17 05:04:06;;;;;;;3.75;1.10;;;;;;;;;;5012650;28;20026;-37
2021/09/17 05:06:32;;;;;;;2.35;1.13;;;;;;;;;;5011710;28;20037;-38
2021/09/17 05:08:58;;;;;;;3.88;1.10;;;;;;;;;;5012199;28;20079;-37
2021/09/17 05:11:23;;;;;;;4.30;1.00;;;;;;;;;;5015735;28;20040;-38
2021/09/17 05:13:49;;;;;;;1.95;0.70;;;;;;;;;;5016320;28;20453;-38
2021/09/17 05:16:14;;;;;;;1.02;0.93;;;;;;;;;;5016017;28;20496;-38
2021/09/17 05:18:39;;;;;;;2.03;0.80;;;;;;;;;;5016257;28;20050;-38
2021/09/17 05:21:05;;;;;;;1.05;0.40;;;;;;;;;;5016219;28;20026;-38
2021/09/17 05:23:30;;;;;;;0.30;0.30;;;;;;;;;;5016121;28;20095;-38
2021/09/17 05:25:56;;;;;;;1.48;0.47;;;;;;;;;;5015751;28;20029;-38
2021/09/17 05:28:21;;;;;;;1.10;0.50;;;;;;;;;;5015677;28;20130;-37
2021/09/17 05:30:46;;;;;;;4.80;0.50;;;;;;;;;;5015821;28;20030;-38
2021/09/17 05:33:12;;;;;;;1.77;0.70;;;;;;;;;;5015842;28;20419;-38
2021/09/17 05:35:37;;;;;;;1.88;0.93;;;;;;;;;;5015717;28;20034;-40
2021/09/17 05:38:03;;;;;;;1.05;0.60;;;;;;;;;;5015899;28;20018;-40
2021/09/17 05:40:28;;;;;;;0.60;0.47;;;;;;;;;;5047292;28;20385;-40
2021/09/17 05:42:53;;;;;;;1.13;0.60;;;;;;;;;;5015817;28;20060;-38
2021/09/17 05:45:19;;;;;;;7.07;0.95;;;;;;;;;;5015185;28;20049;-40
2021/09/17 05:47:44;;;;;;;0.88;0.68;;;;;;;;;;5015361;28;20026;-38
2021/09/17 05:50:11;;;;;;;0.93;0.60;;;;;;;;;;5015585;28;20041;-38
2021/09/17 05:52:36;;;;;;;0.70;0.50;;;;;;;;;;5015342;28;20109;-38
2021/09/17 05:55:03;;;;;;;1.88;0.73;;;;;;;;;;5015564;28;20070;-38
2021/09/17 05:57:29;;;;;;;2.63;0.50;;;;;;;;;;5015176;28;20018;-38
2021/09/17 05:59:54;;;;;;;0.75;0.75;;;;;;;;;;5047042;28;20030;-38
2021/09/17 06:02:20;;;;;;;0.93;0.52;;;;;;;;;;5015035;28;20018;-38
2021/09/17 06:04:45;;;;;;;0.63;0.40;;;;;;;;;;5015444;28;20065;-37
2021/09/17 06:07:11;;;;;;;2.42;0.50;;;;;;;;;;5015349;28;20084;-37
2021/09/17 06:09:37;;;;;;;4.90;0.68;;;;;;;;;;5014889;28;20038;-41
2021/09/17 06:12:02;;;;;;;4.10;0.25;;;;;;;;;;5014957;28;20029;-38
2021/09/17 06:14:28;;;;;;;0.35;0.30;;;;;;;;;;5014921;28;20026;-38
2021/09/17 06:16:54;;;;;;;1.23;0.32;;;;;;;;;;5014924;28;20109;-38
2021/09/17 06:19:19;;;;;;;2.03;0.57;;;;;;;;;;5015126;28;20034;-38
2021/09/17 06:21:45;;;;;;;0.90;0.50;;;;;;;;;;5014599;28;20018;-38
2021/09/17 06:24:11;;;;;;;2.08;1.10;;;;;;;;;;5014599;28;20025;-38
2021/09/17 06:26:36;;;;;;;3.55;1.92;;;;;;;;;;5014813;28;20029;-38
2021/09/17 06:29:03;;;;;;;2.30;1.20;;;;;;;;;;5014861;28;20049;-38
2021/09/17 06:31:28;;;;;;;3.35;1.58;;;;;;;;;;5014566;28;20022;-39
2021/09/17 06:33:54;;;;;;;2.10;1.40;;;;;;;;;;5014892;28;20080;-38
2021/09/17 06:36:20;;;;;;;4.38;1.50;;;;;;;;;;5014683;28;20445;-39
2021/09/17 06:38:45;;;;;;;2.80;1.75;;;;;;;;;;5014503;28;20169;-38
2021/09/17 06:41:10;;;;;;;1.40;0.90;;;;;;;;;;5014499;28;20018;-38
2021/09/17 06:43:36;;;;;;;3.72;1.10;;;;;;;;;;5014416;28;20068;-38
2021/09/17 06:46:02;;;;;;;1.95;1.05;;;;;;;;;;5014073;28;20050;-38
2021/09/17 06:48:27;;;;;;;2.22;1.00;;;;;;;;;;5014198;28;20242;-38
2021/09/17 06:50:53;;;;;;;1.27;0.82;;;;;;;;;;5014363;28;20030;-38
2021/09/17 06:53:18;;;;;;;1.17;0.90;;;;;;;;;;5014003;28;20030;-38
2021/09/17 06:55:44;;;;;;;0.90;0.57;;;;;;;;;;5014240;28;20017;-38
2021/09/17 06:58:09;;;;;;;2.78;1.05;;;;;;;;;;5014012;28;20029;-38
2021/09/17 07:00:36;;;;;;;3.75;1.02;;;;;;;;;;5014022;28;20026;-38
2021/09/17 07:03:01;;;;;;;3.65;0.90;;;;;;;;;;5014050;28;20030;-38
2021/09/17 07:05:29;;;;;;;1.35;0.85;;;;;;;;;;5014058;28;20041;-38
2021/09/17 07:07:59;;;;;;;1.85;0.80;;;;;;;;;;5013972;28;20373;-38
2021/09/17 07:10:25;;;;;;;1.30;0.80;;;;;;;;;;5013810;28;20029;-39
2021/09/17 07:12:50;;;;;;;1.50;1.15;;;;;;;;;;5013812;28;20461;-38
2021/09/17 07:15:17;;;;;;;1.55;0.88;;;;;;;;;;5013762;28;20080;-39
2021/09/17 07:17:42;;;;;;;1.67;0.90;;;;;;;;;;5013799;28;20036;-38
2021/09/17 07:20:08;;;;;;;1.02;0.82;;;;;;;;;;5013713;28;20022;-40
2021/09/17 07:22:34;;;;;;;1.02;0.85;;;;;;;;;;5013654;28;20499;-39
2021/09/17 07:24:59;;;;;;;1.35;0.75;;;;;;;;;;5013952;28;20541;-39
2021/09/17 07:27:24;;;;;;;1.05;0.82;;;;;;;;;;5013570;28;20030;-39
2021/09/17 07:29:50;;;;;;;2.58;1.02;;;;;;;;;;5013778;28;20092;-39
2021/09/17 07:32:15;;;;;;;2.17;1.00;;;;;;;;;;5013106;28;20026;-39
2021/09/17 07:34:41;;;;;;;1.60;0.80;;;;;;;;;;5013510;28;20026;-39
2021/09/17 07:37:06;;;;;;;3.22;0.70;;;;;;;;;;5013402;28;20025;-39
2021/09/17 07:39:31;;;;;;;1.80;0.63;;;;;;;;;;5013483;28;20013;-38
2021/09/17 07:41:57;;;;;;;5.07;0.90;;;;;;;;;;5013519;28;20600;-39
2021/09/17 07:44:22;;;;;;;1.90;0.60;;;;;;;;;;5013303;28;20042;-39
2021/09/17 07:46:48;;;;;;;3.25;0.63;;;;;;;;;;5013404;28;20119;-39
2021/09/17 07:49:13;;;;;;;1.55;1.08;;;;;;;;;;5013285;28;20114;-39
2021/09/17 07:51:39;;;;;;;1.02;0.60;;;;;;;;;;5013500;28;20160;-38
2021/09/17 07:54:04;;;;;;;1.50;0.40;;;;;;;;;;5013225;28;20105;-39
2021/09/17 07:56:30;;;;;;;0.82;0.68;;;;;;;;;;5012933;28;20026;-39
2021/09/17 07:58:55;;;;;;;0.90;0.75;;;;;;;;;;5013088;28;20026;-38
2021/09/17 08:01:20;;;;;;;1.83;0.57;;;;;;;;;;5012906;28;20022;-39
2021/09/17 08:03:46;;;;;;;1.52;0.45;;;;;;;;;;5012967;28;20018;-39
2021/09/17 08:06:13;;;;;;;0.82;0.70;;;;;;;;;;5013212;28;20113;-39
2021/09/17 08:08:38;;;;;;;0.93;0.40;;;;;;;;;;5044827;28;20026;-39
2021/09/17 08:11:04;;;;;;;1.50;0.85;;;;;;;;;;5013052;28;20061;-39
2021/09/17 08:13:29;;;;;;;3.10;0.52;;;;;;;;;;5012763;28;20469;-39
2021/09/17 08:15:55;;;;;;;3.58;0.82;;;;;;;;;;5013113;28;20026;-39
2021/09/17 08:18:20;;;;;;;2.13;0.60;;;;;;;;;;5012737;28;20022;-38
2021/09/17 08:20:49;;;;;;;1.95;1.10;;;;;;;;;;5012788;28;20500;-38
2021/09/17 08:23:19;;;;;;;3.22;0.68;;;;;;;;;;5012683;28;20033;-38
2021/09/17 08:25:50;;;;;;;1.85;0.57;;;;;;;;;;5012636;28;20025;-39
2021/09/17 08:28:15;;;;;;;2.25;0.80;;;;;;;;;;5012573;28;20049;-39
2021/09/17 08:30:41;;;;;;;1.13;0.60;;;;;;;;;;5012693;28;20389;-39
2021/09/17 08:33:07;;;;;;;1.17;0.60;;;;;;;;;;5012722;28;20033;-39
2021/09/17 08:35:33;;;;;;;2.75;0.93;;;;;;;;;;5012819;28;20138;-39
2021/09/17 08:37:58;;;;;;;4.35;1.05;;;;;;;;;;5012590;28;20018;-39
2021/09/17 08:40:28;;;;;;;1.15;1.05;;;;;;;;;;5044187;28;20038;-39
2021/09/17 08:42:55;;;;;;;2.00;0.90;;;;;;;;;;5012500;28;20026;-38
2021/09/17 08:45:21;;;;;;;0.65;0.43;;;;;;;;;;5014429;28;20052;-39
2021/09/17 08:47:48;;;;;;;1.35;0.93;;;;;;;;;;5016766;28;20030;-39
2021/09/17 08:50:14;;;;;;;0.93;0.50;;;;;;;;;;5016339;28;20544;-39
2021/09/17 08:52:40;;;;;;;1.30;0.52;;;;;;;;;;5016659;28;20105;-39
2021/09/17 08:55:06;;;;;;;1.17;0.60;;;;;;;;;;5016437;28;20026;-40
2021/09/17 08:57:32;;;;;;;1.08;0.80;;;;;;;;;;5016332;28;20025;-39
2021/09/17 08:59:57;;;;;;;2.05;0.50;;;;;;;;;;5016336;28;20406;-39
2021/09/17 09:02:28;;;;;;;3.05;0.57;;;;;;;;;;5016230;28;20084;-38
2021/09/17 09:04:54;;;;;;;0.98;0.60;;;;;;;;;;5016567;28;20076;-38
2021/09/17 09:07:25;;;;;;;0.98;0.55;;;;;;;;;;5016409;28;20038;-38
2021/09/17 09:09:51;;;;;;;0.93;0.60;;;;;;;;;;5016160;28;20042;-38
2021/09/17 09:12:17;;;;;;;1.15;0.65;;;;;;;;;;5015971;28;20111;-38
2021/09/17 09:14:43;;;;;;;1.73;0.65;;;;;;;;;;5016049;28;20045;-38
2021/09/17 09:17:08;;;;;;;9.07;0.93;;;;;;;;;;5016359;28;20018;-38
2021/09/17 09:19:35;;;;;;;2.97;0.60;;;;;;;;;;5015910;28;20030;-38
2021/09/17 09:22:03;;;;;;;1.35;0.80;;;;;;;;;;5015930;28;20022;-38
2021/09/17 09:24:30;;;;;;;1.42;0.80;;;;;;;;;;5015869;28;20028;-38
2021/09/17 09:27:09;;;;;;;0.98;0.70;;;;;;;;;;5016169;28;20032;-38
2021/09/17 09:29:35;;;;;;;1.27;0.82;;;;;;;;;;5015787;28;20065;-38
2021/09/17 09:32:01;;;;;;;2.90;0.65;;;;;;;;;;5015772;28;20041;-38
2021/09/17 09:34:45;;;;;;;5.50;0.55;;;;;;;;;;5015687;28;20037;-38
2021/09/17 09:37:10;;;;;;;1.10;0.65;;;;;;;;;;5030704;28;20030;-38
2021/09/17 09:40:08;;;;;;;1.38;0.43;;;;;;;;;;5015689;28;20014;-38
2021/09/17 09:42:38;;;;;;;0.47;0.38;;;;;;;;;;5003403;28;20112;-38
2021/09/17 09:45:14;;;;;;;4.10;0.65;;;;;;;;;;5015389;28;20068;-38
2021/09/17 09:47:40;;;;;;;2.60;0.60;;;;;;;;;;5015508;28;20088;-38
2021/09/17 09:50:07;;;;;;;6.60;0.95;;;;;;;;;;5015402;28;20418;-38
2021/09/17 09:52:32;;;;;;;0.52;0.40;;;;;;;;;;5015566;28;20037;-38
2021/09/17 09:54:58;;;;;;;0.95;0.60;;;;;;;;;;5015398;28;20021;-38
2021/09/17 09:57:24;;;;;;;1.38;0.65;;;;;;;;;;5014956;28;20508;-38
2021/09/17 09:59:51;;;;;;;0.63;0.63;;;;;;;;;;5015577;28;20549;-38
2021/09/17 10:02:17;;;;;;;0.93;0.47;;;;;;;;;;5013745;28;20079;-39
2021/09/17 10:04:43;;;;;;;0.50;0.50;;;;;;;;;;5015189;28;20427;-38
2021/09/17 10:07:09;;;;;;;0.50;0.40;;;;;;;;;;5015198;28;20038;-38
2021/09/17 10:09:36;;;;;;;1.00;0.57;;;;;;;;;;5014955;28;20061;-39
2021/09/17 10:12:02;;;;;;;2.15;1.65;;;;;;;;;;5014953;28;20033;-38
2021/09/17 10:14:30;;;;;;;1.00;0.57;;;;;;;;;;5030206;28;20033;-39
2021/09/17 10:16:57;;;;;;;1.63;0.60;;;;;;;;;;5015010;28;20029;-39
2021/09/17 10:19:23;;;;;;;4.82;0.50;;;;;;;;;;5014838;28;20026;-39
2021/09/17 10:21:49;;;;;;;3.08;0.60;;;;;;;;;;5015080;28;20385;-39
2021/09/17 10:24:26;;;;;;;2.75;0.77;;;;;;;;;;5014703;28;20030;-39
2021/09/17 10:26:55;;;;;;;0.85;0.50;;;;;;;;;;5014755;28;20030;-38
2021/09/17 10:29:29;;;;;;;2.00;0.90;;;;;;;;;;5014875;28;20034;-38
2021/09/17 10:31:59;;;;;;;0.95;0.60;;;;;;;;;;5014544;28;20029;-38
2021/09/17 10:34:36;;;;;;;3.03;0.60;;;;;;;;;;5014566;28;20084;-39
2021/09/17 10:37:02;;;;;;;0.85;0.60;;;;;;;;;;5014846;28;20368;-39
2021/09/17 10:39:28;;;;;;;0.38;0.38;;;;;;;;;;5014458;28;20022;-39
2021/09/17 10:42:14;;;;;;;0.93;0.60;;;;;;;;;;5014707;28;20448;-39
2021/09/17 10:44:58;;;;;;;1.65;0.85;;;;;;;;;;5046086;28;20065;-39
2021/09/17 10:47:54;;;;;;;1.55;0.70;;;;;;;;;;5014200;28;20026;-39
2021/09/17 10:50:21;;;;;;;0.70;0.70;;;;;;;;;;5013804;28;20496;-39
2021/09/17 10:52:48;;;;;;;2.80;0.50;;;;;;;;;;5014267;28;20014;-39
2021/09/17 10:55:32;;;;;;;6.47;0.47;;;;;;;;;;5014091;28;20076;-38
2021/09/17 10:58:16;;;;;;;0.47;0.45;;;;;;;;;;5014532;28;20026;-39
2021/09/17 11:01:01;;;;;;;1.05;0.60;;;;;;;;;;5014310;28;20022;-39
2021/09/17 11:03:36;;;;;;;2.20;0.65;;;;;;;;;;5013970;28;20045;-39
2021/09/17 11:06:26;;;;;;;0.80;0.60;;;;;;;;;;5014083;28;20061;-39
2021/09/17 11:08:51;;;;;;;0.52;0.43;;;;;;;;;;5013402;28;20066;-39
2021/09/17 11:11:24;;;;;;;0.57;0.50;;;;;;;;;;5013809;28;20507;-38
2021/09/17 11:13:50;;;;;;;1.88;0.68;;;;;;;;;;5013865;28;20430;-39
2021/09/17 11:16:16;;;;;;;1.33;0.30;;;;;;;;;;5014001;28;20018;-39
2021/09/17 11:18:55;;;;;;;5.85;0.60;;;;;;;;;;5013825;28;20068;-39
2021/09/17 11:21:21;;;;;;;0.40;0.40;;;;;;;;;;5013643;28;20068;-39
2021/09/17 11:23:51;;;;;;;0.55;0.40;;;;;;;;;;5013645;28;20050;-38
2021/09/17 11:26:35;;;;;;;1.88;0.60;;;;;;;;;;5013623;28;20030;-38
2021/09/17 11:29:00;;;;;;;1.67;0.80;;;;;;;;;;5013477;28;20042;-38
2021/09/17 11:31:28;;;;;;;0.80;0.50;;;;;;;;;;5028636;28;20022;-39
2021/09/17 11:33:57;;;;;;;0.45;0.40;;;;;;;;;;5013476;28;20038;-38
2021/09/17 11:36:36;;;;;;;1.08;0.57;;;;;;;;;;5013305;28;20081;-38
2021/09/17 11:39:16;;;;;;;0.65;0.52;;;;;;;;;;5013469;28;20111;-38
2021/09/17 11:41:42;;;;;;;0.60;0.45;;;;;;;;;;5013403;28;20041;-38
2021/09/17 11:44:07;;;;;;;0.47;0.47;;;;;;;;;;5012736;28;20477;-38
2021/09/17 11:46:33;;;;;;;0.85;0.40;;;;;;;;;;5013272;28;20119;-39
2021/09/17 11:48:59;;;;;;;4.60;0.50;;;;;;;;;;5013206;28;20040;-38
2021/09/17 11:51:24;;;;;;;1.20;0.60;;;;;;;;;;5013258;28;20029;-38
2021/09/17 11:53:50;;;;;;;0.68;0.47;;;;;;;;;;5013235;28;20028;-38
2021/09/17 11:56:15;;;;;;;0.77;0.47;;;;;;;;;;5013341;28;20073;-39
2021/09/17 11:58:41;;;;;;;0.93;0.38;;;;;;;;;;5013350;28;20013;-38
2021/09/17 12:01:27;;;;;;;0.60;0.52;;;;;;;;;;5013053;28;20069;-38
2021/09/17 12:03:54;;;;;;;0.57;0.40;;;;;;;;;;5012846;28;20400;-38
2021/09/17 12:06:19;;;;;;;0.57;0.50;;;;;;;;;;5013147;28;20084;-38
2021/09/17 12:08:45;;;;;;;0.30;0.30;;;;;;;;;;5012825;28;20042;-38
2021/09/17 12:11:10;;;;;;;0.70;0.50;;;;;;;;;;5012846;28;20049;-38
2021/09/17 12:13:36;;;;;;;1.42;0.47;;;;;;;;;;5012708;28;20041;-38
2021/09/17 12:16:06;;;;;;;2.58;0.70;;;;;;;;;;5013172;28;20026;-38
2021/09/17 12:18:32;;;;;;;0.30;0.10;;;;;;;;;;5012553;28;20052;-39
2021/09/17 12:20:59;;;;;;;0.30;0.30;;;;;;;;;;5012999;28;20445;-39
2021/09/17 12:23:30;;;;;;;0.63;0.50;;;;;;;;;;5012723;28;20044;-38
2021/09/17 12:26:04;;;;;;;2.92;0.63;;;;;;;;;;5012966;28;20034;-39
2021/09/17 12:28:30;;;;;;;2.92;0.32;;;;;;;;;;5011312;28;20042;-38
2021/09/17 12:30:55;;;;;;;0.65;0.40;;;;;;;;;;5012641;28;20025;-38
2021/09/17 12:33:21;;;;;;;0.20;0.20;;;;;;;;;;5012515;28;20033;-38
2021/09/17 12:35:48;;;;;;;1.10;0.38;;;;;;;;;;5012646;28;20028;-38
2021/09/17 12:38:14;;;;;;;1.70;0.80;;;;;;;;;;5012785;28;20101;-38
2021/09/17 12:40:50;;;;;;;0.65;0.30;;;;;;;;;;5012474;28;20026;-38
2021/09/17 12:43:24;;;;;;;0.80;0.40;;;;;;;;;;5012507;28;20058;-38
2021/09/17 12:45:59;;;;;;;0.65;0.32;;;;;;;;;;5012480;28;20068;-38
2021/09/17 12:48:24;;;;;;;0.40;0.30;;;;;;;;;;5012262;28;20037;-38
2021/09/17 12:50:50;;;;;;;0.70;0.28;;;;;;;;;;5012816;28;20018;-38
2021/09/17 12:53:21;;;;;;;0.77;0.30;;;;;;;;;;5012655;28;20112;-38
2021/09/17 12:55:47;;;;;;;2.92;0.45;;;;;;;;;;5012691;28;20026;-38
2021/09/17 12:58:17;;;;;;;0.65;0.40;;;;;;;;;;5012434;28;20392;-38
2021/09/17 13:00:44;;;;;;;0.30;0.30;;;;;;;;;;5012388;28;20034;-38
2021/09/17 13:03:11;;;;;;;0.70;0.32;;;;;;;;;;5012381;28;20544;-38
2021/09/17 13:05:38;;;;;;;0.30;0.20;;;;;;;;;;5012247;28;20017;-38
2021/09/17 13:08:04;;;;;;;1.48;0.55;;;;;;;;;;5012602;28;20051;-38
2021/09/17 13:10:30;;;;;;;0.70;0.50;;;;;;;;;;5012416;28;20029;-39
2021/09/17 13:12:56;;;;;;;0.80;0.50;;;;;;;;;;5012278;28;20385;-38
2021/09/17 13:15:22;;;;;;;0.60;0.60;;;;;;;;;;5012548;28;20022;-39
2021/09/17 13:17:47;;;;;;;0.57;0.45;;;;;;;;;;5012472;28;20030;-38
2021/09/17 13:20:13;;;;;;;0.68;0.40;;;;;;;;;;5012240;28;20428;-39
2021/09/17 13:22:39;;;;;;;1.10;0.30;;;;;;;;;;5012111;28;20113;-39
2021/09/17 13:25:05;;;;;;;0.40;0.40;;;;;;;;;;5012162;28;20049;-38
2021/09/17 13:27:31;;;;;;;0.30;0.30;;;;;;;;;;5012460;28;20073;-39
2021/09/17 13:29:56;;;;;;;0.93;0.45;;;;;;;;;;5012002;28;20033;-39
2021/09/17 13:32:25;;;;;;;0.73;0.50;;;;;;;;;;5015433;28;20026;-39
2021/09/17 13:34:50;;;;;;;0.52;0.40;;;;;;;;;;5015963;28;20030;-38
2021/09/17 13:37:16;;;;;;;1.98;0.50;;;;;;;;;;5015576;28;20451;-38
2021/09/17 13:39:41;;;;;;;0.52;0.43;;;;;;;;;;5015998;28;20448;-38
2021/09/17 13:42:08;;;;;;;1.52;0.68;;;;;;;;;;5015534;28;20474;-38
2021/09/17 13:44:33;;;;;;;7.32;0.40;;;;;;;;;;5015451;28;20073;-39
2021/09/17 13:46:59;;;;;;;0.55;0.28;;;;;;;;;;5015854;28;20056;-38
2021/09/17 13:49:24;;;;;;;1.10;0.85;;;;;;;;;;5015289;28;20397;-39
2021/09/17 13:51:50;;;;;;;1.48;0.30;;;;;;;;;;5015442;28;20037;-39
2021/09/17 13:54:15;;;;;;;1.30;0.40;;;;;;;;;;5015327;28;20018;-39
2021/09/17 13:56:40;;;;;;;1.08;0.28;;;;;;;;;;5015338;28;20025;-38
2021/09/17 13:59:06;;;;;;;0.75;0.60;;;;;;;;;;5015257;28;20018;-39
2021/09/17 14:01:31;;;;;;;1.00;0.70;;;;;;;;;;5015156;28;20037;-38
2021/09/17 14:03:56;;;;;;;0.40;0.35;;;;;;;;;;5015582;28;20057;-39
2021/09/17 14:06:22;;;;;;;5.90;1.17;;;;;;;;;;5015301;28;20061;-39
2021/09/17 14:08:48;;;;;;;0.95;0.85;;;;;;;;;;5015061;28;20408;-39
2021/09/17 14:11:14;;;;;;;1.58;0.45;;;;;;;;;;5015003;28;20030;-39
2021/09/17 14:13:39;;;;;;;3.10;0.40;;;;;;;;;;5014909;28;20018;-38
2021/09/17 14:16:05;;;;;;;0.80;0.57;;;;;;;;;;5047140;28;20465;-39
2021/09/17 14:18:30;;;;;;;1.25;0.68;;;;;;;;;;5015217;28;20424;-38
2021/09/17 14:20:55;;;;;;;1.33;0.55;;;;;;;;;;5015102;28;20033;-38
2021/09/17 14:23:21;;;;;;;0.85;0.50;;;;;;;;;;5015118;28;20014;-38
2021/09/17 14:25:46;;;;;;;0.85;0.60;;;;;;;;;;5014851;28;20025;-38
2021/09/17 14:28:12;;;;;;;1.20;0.60;;;;;;;;;;5014960;28;20029;-38
2021/09/17 14:30:37;;;;;;;0.63;0.63;;;;;;;;;;5014602;28;20511;-38
2021/09/17 14:33:03;;;;;;;2.47;0.30;;;;;;;;;;5014711;28;20026;-38
2021/09/17 14:35:28;;;;;;;1.00;0.47;;;;;;;;;;5014836;28;20030;-39
2021/09/17 14:37:54;;;;;;;0.28;0.28;;;;;;;;;;5014669;28;20018;-38